createdAt,value
2023-03-04T00:00:43.194Z,3.97
2023-03-04T00:03:44.480Z,4.63
2023-03-04T00:06:45.781Z,5.90
2023-03-04T00:09:47.215Z,5.07
2023-03-04T00:12:48.462Z,4.53
2023-03-04T00:15:49.786Z,3.92
2023-03-04T00:18:51.042Z,4.07
2023-03-04T00:21:52.332Z,4.72
2023-03-04T00:24:53.620Z,3.90
2023-03-04T00:27:54.962Z,4.53
2023-03-04T00:30:56.278Z,5.47
2023-03-04T00:33:57.563Z,4.60
2023-03-04T00:37:01.406Z,5.18
2023-03-04T00:40:02.818Z,6.10
2023-03-04T00:43:04.110Z,5.13
2023-03-04T00:46:05.486Z,5.45
2023-03-04T00:49:06.807Z,4.97
2023-03-04T00:52:08.171Z,6.65
2023-03-04T00:55:09.690Z,5.15
2023-03-04T00:58:10.971Z,6.45
2023-03-04T01:01:12.246Z,3.78
2023-03-04T01:04:13.573Z,5.05
2023-03-04T01:07:14.912Z,3.05
2023-03-04T01:10:16.319Z,4.45
2023-03-04T01:13:17.787Z,4.20
2023-03-04T01:16:19.147Z,5.95
2023-03-04T01:19:20.491Z,5.95
2023-03-04T01:22:21.873Z,3.83
2023-03-04T01:25:23.134Z,5.20
2023-03-04T01:28:24.430Z,6.53
2023-03-04T01:31:25.716Z,6.45
2023-03-04T01:34:27.058Z,5.15
2023-03-04T01:37:28.441Z,4.40
2023-03-04T01:40:30.431Z,4.38
2023-03-04T01:43:32.381Z,4.55
2023-03-04T01:46:33.731Z,3.40
2023-03-04T01:49:35.069Z,4.13
2023-03-04T01:52:36.744Z,7.05
2023-03-04T01:55:38.046Z,3.08
2023-03-04T01:58:39.367Z,5.85
2023-03-04T02:01:43.018Z,4.07
2023-03-04T02:04:44.346Z,4.35
2023-03-04T02:07:45.614Z,4.90
2023-03-04T02:10:47.225Z,4.88
2023-03-04T02:13:48.580Z,6.30
2023-03-04T02:16:50.278Z,5.32
2023-03-04T02:19:55.327Z,4.22
2023-03-04T02:23:07.811Z,5.93
2023-03-04T02:26:17.980Z,4.97
2023-03-04T02:29:19.479Z,5.28
2023-03-04T02:32:20.898Z,4.07
2023-03-04T02:35:22.313Z,5.38
2023-03-04T02:38:23.650Z,4.65
2023-03-04T02:41:26.179Z,7.68
2023-03-04T02:44:31.773Z,5.05
2023-03-04T02:47:33.040Z,3.92
2023-03-04T02:50:36.495Z,5.43
2023-03-04T02:53:37.991Z,5.03
2023-03-04T02:56:39.321Z,4.78
2023-03-04T02:59:41.189Z,5.57
2023-03-04T03:02:42.631Z,5.50
2023-03-04T03:05:44.027Z,6.22
2023-03-04T03:08:45.281Z,5.35
2023-03-04T03:11:46.621Z,4.97
2023-03-04T03:14:47.856Z,4.05
2023-03-04T03:17:49.227Z,6.38
2023-03-04T03:20:50.569Z,5.70
2023-03-04T03:23:51.977Z,6.10
2023-03-04T03:26:53.285Z,4.25
2023-03-04T03:29:54.593Z,4.80
2023-03-04T03:32:55.933Z,5.47
2023-03-04T03:35:57.471Z,6.63
2023-03-04T03:38:58.901Z,5.72
2023-03-04T03:42:00.164Z,7.05
2023-03-04T03:45:01.473Z,6.57
2023-03-04T03:48:03.213Z,5.65
2023-03-04T03:51:04.551Z,4.57
2023-03-04T03:54:05.839Z,6.22
2023-03-04T03:57:07.187Z,6.05
2023-03-04T04:00:09.054Z,5.32
2023-03-04T04:03:13.560Z,5.53
2023-03-04T04:06:14.906Z,5.68
2023-03-04T04:09:16.187Z,4.60
2023-03-04T04:12:18.170Z,5.47
2023-03-04T04:15:19.535Z,5.80
2023-03-04T04:18:20.827Z,6.15
2023-03-04T04:21:22.212Z,3.35
2023-03-04T04:24:23.550Z,5.47
2023-03-04T04:27:24.863Z,6.32
2023-03-04T04:30:26.246Z,6.15
2023-03-04T04:33:27.540Z,5.90
2023-03-04T04:36:28.802Z,4.72
2023-03-04T04:39:30.090Z,5.25
2023-03-04T04:42:31.387Z,4.97
2023-03-04T04:45:32.633Z,5.82
2023-03-04T04:48:33.926Z,5.97
2023-03-04T04:51:35.917Z,4.47
2023-03-04T04:54:37.229Z,6.40
2023-03-04T04:57:38.931Z,4.82
2023-03-04T05:00:40.271Z,5.63
2023-03-04T05:03:41.565Z,5.53
2023-03-04T05:06:43.066Z,6.20
2023-03-04T05:09:44.403Z,5.13
2023-03-04T05:12:45.711Z,6.63
2023-03-04T05:15:47.330Z,4.75
2023-03-04T05:18:48.585Z,5.95
2023-03-04T05:21:49.859Z,7.75
2023-03-04T05:24:51.544Z,5.32
2023-03-04T05:27:52.857Z,5.38
2023-03-04T05:30:54.230Z,6.97
2023-03-04T05:33:55.540Z,5.95
2023-03-04T05:36:56.827Z,4.60
2023-03-04T05:39:58.094Z,6.10
2023-03-04T05:42:59.580Z,5.10
2023-03-04T05:46:01.227Z,9.40
2023-03-04T05:49:02.564Z,6.47
2023-03-04T05:52:03.847Z,9.05
2023-03-04T05:55:05.459Z,6.07
2023-03-04T05:58:06.722Z,6.55
2023-03-04T06:01:08.165Z,6.18
2023-03-04T06:04:09.606Z,5.43
2023-03-04T06:07:11.017Z,7.10
2023-03-04T06:10:13.594Z,4.63
2023-03-04T06:13:14.846Z,7.20
2023-03-04T06:16:16.194Z,5.70
2023-03-04T06:19:17.613Z,8.98
2023-03-04T06:22:18.924Z,9.35
2023-03-04T06:25:20.346Z,6.82
2023-03-04T06:28:21.756Z,6.00
2023-03-04T06:31:23.192Z,4.95
2023-03-04T06:34:24.509Z,7.05
2023-03-04T06:37:25.810Z,6.95
2023-03-04T06:40:27.220Z,7.13
2023-03-04T06:43:28.468Z,6.90
2023-03-04T06:46:30.678Z,7.07
2023-03-04T06:49:32.096Z,8.48
2023-03-04T06:52:33.433Z,7.43
2023-03-04T06:55:34.701Z,7.75
2023-03-04T06:58:36.366Z,6.38
2023-03-04T07:01:38.141Z,7.57
2023-03-04T07:04:39.946Z,7.68
2023-03-04T07:07:41.196Z,6.15
2023-03-04T07:10:42.487Z,6.05
2023-03-04T07:13:43.765Z,6.75
2023-03-04T07:16:45.303Z,7.55
2023-03-04T07:19:46.612Z,7.20
2023-03-04T07:22:47.954Z,9.20
2023-03-04T07:25:50.118Z,6.78
2023-03-04T07:28:52.866Z,8.05
2023-03-04T07:31:54.296Z,9.68
2023-03-04T07:34:55.661Z,5.85
2023-03-04T07:37:57.051Z,7.32
2023-03-04T07:40:59.132Z,8.55
2023-03-04T07:44:00.455Z,6.60
2023-03-04T07:47:01.798Z,6.93
2023-03-04T07:50:03.151Z,7.57
2023-03-04T07:53:04.432Z,8.00
2023-03-04T07:56:06.505Z,6.65
2023-03-04T07:59:07.925Z,7.50
2023-03-04T08:02:10.405Z,5.90
2023-03-04T08:05:12.000Z,6.38
2023-03-04T08:08:14.617Z,9.82
2023-03-04T08:11:18.564Z,8.30
2023-03-04T08:14:19.944Z,8.75
2023-03-04T08:17:21.249Z,9.25
2023-03-04T08:20:22.503Z,7.43
2023-03-04T08:23:24.318Z,8.93
2023-03-04T08:26:30.366Z,9.13
2023-03-04T08:29:31.729Z,8.55
2023-03-04T08:32:33.219Z,7.68
2023-03-04T08:35:37.155Z,8.45
2023-03-04T08:38:38.520Z,10.77
2023-03-04T08:41:40.127Z,8.82
2023-03-04T08:44:41.441Z,7.60
2023-03-04T08:47:42.744Z,8.88
2023-03-04T08:50:44.988Z,8.68
2023-03-04T08:53:46.370Z,11.27
2023-03-04T08:56:47.672Z,10.30
2023-03-04T08:59:48.959Z,10.75
2023-03-04T09:02:50.293Z,11.00
2023-03-04T09:05:52.050Z,9.27
2023-03-04T09:08:53.443Z,10.55
2023-03-04T09:11:54.785Z,9.65
2023-03-04T09:15:10.342Z,11.65
2023-03-04T09:18:12.864Z,9.63
2023-03-04T09:21:14.237Z,11.85
2023-03-04T09:24:15.744Z,9.32
2023-03-04T09:27:17.072Z,8.35
2023-03-04T09:30:18.545Z,11.13
2023-03-04T09:33:19.823Z,9.07
2023-03-04T09:36:21.518Z,10.07
2023-03-04T09:39:23.000Z,7.70
2023-03-04T09:42:30.225Z,12.15
2023-03-04T09:45:36.770Z,9.40
2023-03-04T09:48:51.969Z,10.23
2023-03-04T09:52:04.754Z,11.73
2023-03-04T09:55:14.609Z,11.25
2023-03-04T09:58:34.108Z,10.20
2023-03-04T10:01:44.576Z,8.95
2023-03-04T10:04:51.549Z,9.15
2023-03-04T10:07:57.180Z,8.65
2023-03-04T10:10:59.436Z,7.88
2023-03-04T10:14:00.733Z,10.43
2023-03-04T10:17:21.880Z,8.82
2023-03-04T10:20:25.271Z,8.02
2023-03-04T10:23:27.214Z,10.10
2023-03-04T10:26:29.481Z,8.23
2023-03-04T10:29:31.971Z,8.02
2023-03-04T10:32:33.365Z,8.75
2023-03-04T10:35:36.204Z,9.02
2023-03-04T10:38:39.784Z,8.32
2023-03-04T10:41:46.141Z,8.50
2023-03-04T10:44:57.655Z,9.90
2023-03-04T10:47:59.159Z,8.75
2023-03-04T10:51:20.708Z,8.65
2023-03-04T10:54:29.929Z,8.07
2023-03-04T10:57:34.306Z,8.70
2023-03-04T11:00:38.565Z,9.82
2023-03-04T11:03:46.339Z,10.02
2023-03-04T11:06:48.275Z,9.30
2023-03-04T11:09:49.591Z,8.40
2023-03-04T11:12:56.872Z,9.73
2023-03-04T11:16:05.416Z,7.20
2023-03-04T11:19:14.339Z,6.50
2023-03-04T11:22:17.084Z,8.27
2023-03-04T11:25:25.313Z,7.28
2023-03-04T11:28:31.708Z,6.15
2023-03-04T11:31:50.593Z,6.07
2023-03-04T11:34:55.679Z,6.57
2023-03-04T11:38:10.306Z,7.95
2023-03-04T11:41:14.192Z,6.78
2023-03-04T11:44:15.471Z,6.63
2023-03-04T11:47:30.228Z,6.35
2023-03-04T11:50:53.218Z,6.32
2023-03-04T11:54:13.057Z,6.38
2023-03-04T11:57:33.722Z,5.72
2023-03-04T12:00:40.080Z,7.95
2023-03-04T12:03:44.241Z,7.05
2023-03-04T12:06:48.659Z,6.18
2023-03-04T12:09:56.101Z,6.30
2023-03-04T12:13:25.610Z,5.65
2023-03-04T12:16:47.193Z,5.78
2023-03-04T12:19:48.487Z,5.15
2023-03-04T12:23:04.163Z,6.97
2023-03-04T12:26:23.901Z,4.15
2023-03-04T12:29:44.071Z,4.82
2023-03-04T12:33:03.850Z,5.43
2023-03-04T12:36:09.162Z,5.78
2023-03-04T12:39:10.492Z,5.78
2023-03-04T12:42:18.269Z,6.60
2023-03-04T12:45:27.310Z,8.82
2023-03-04T12:48:33.510Z,5.32
2023-03-04T12:51:40.942Z,7.25
2023-03-04T12:54:50.643Z,5.22
2023-03-04T12:57:54.296Z,6.82
2023-03-04T13:01:15.955Z,6.20
2023-03-04T13:04:26.467Z,7.18
2023-03-04T13:07:33.866Z,4.90
2023-03-04T13:10:35.164Z,5.07
2023-03-04T13:13:40.632Z,7.40
2023-03-04T13:16:43.811Z,8.05
2023-03-04T13:19:52.870Z,5.13
2023-03-04T13:23:01.712Z,5.20
2023-03-04T13:26:02.948Z,5.07
2023-03-04T13:29:10.402Z,6.35
2023-03-04T13:32:11.950Z,6.65
2023-03-04T13:35:32.149Z,5.72
2023-03-04T13:38:37.929Z,6.78
2023-03-04T13:41:49.952Z,6.38
2023-03-04T13:44:51.241Z,7.13
2023-03-04T13:47:52.596Z,6.70
2023-03-04T13:50:53.932Z,5.95
2023-03-04T13:53:57.992Z,6.07
2023-03-04T13:57:02.451Z,6.05
2023-03-04T14:00:06.471Z,5.72
2023-03-04T14:03:33.980Z,3.97
2023-03-04T14:06:35.270Z,4.25
2023-03-04T14:09:36.522Z,4.78
2023-03-04T14:12:43.002Z,4.25
2023-03-04T14:15:53.669Z,4.35
2023-03-04T14:18:59.202Z,5.05
2023-03-04T14:22:00.749Z,4.82
2023-03-04T14:25:02.349Z,4.93
2023-03-04T14:28:03.739Z,4.43
2023-03-04T14:31:05.034Z,5.05
2023-03-04T14:34:07.341Z,4.97
2023-03-04T14:37:25.899Z,5.90
2023-03-04T14:40:29.322Z,5.75
2023-03-04T14:43:31.053Z,4.07
2023-03-04T14:46:40.194Z,4.20
2023-03-04T14:49:41.672Z,3.72
2023-03-04T14:52:44.392Z,5.57
2023-03-04T14:56:01.980Z,3.65
2023-03-04T14:59:03.313Z,5.20
2023-03-04T15:02:18.966Z,5.47
2023-03-04T15:05:26.284Z,5.13
2023-03-04T15:08:29.288Z,4.45
2023-03-04T15:11:33.574Z,4.47
2023-03-04T15:14:50.058Z,6.03
2023-03-04T15:18:01.566Z,4.55
2023-03-04T15:21:25.289Z,4.55
2023-03-04T15:24:26.572Z,3.97
2023-03-04T15:27:28.585Z,4.25
2023-03-04T15:30:31.307Z,4.70
2023-03-04T15:33:32.672Z,3.53
2023-03-04T15:36:33.920Z,5.10
2023-03-04T15:39:35.169Z,3.83
2023-03-04T15:42:36.437Z,4.25
2023-03-04T15:45:39.060Z,3.95
2023-03-04T15:48:40.365Z,3.25
2023-03-04T15:51:41.971Z,3.65
2023-03-04T15:54:44.077Z,3.42
2023-03-04T15:57:46.274Z,4.38
2023-03-04T16:00:47.632Z,4.20
2023-03-04T16:03:49.236Z,4.88
2023-03-04T16:06:50.635Z,4.05
2023-03-04T16:09:55.754Z,5.07
2023-03-04T16:12:57.352Z,4.38
2023-03-04T16:15:58.634Z,3.53
2023-03-04T16:18:59.896Z,4.32
2023-03-04T16:22:01.703Z,4.35
2023-03-04T16:25:03.074Z,3.83
2023-03-04T16:28:04.539Z,3.42
2023-03-04T16:31:05.928Z,4.90
2023-03-04T16:34:07.314Z,4.60
2023-03-04T16:37:13.067Z,3.90
2023-03-04T16:40:15.685Z,3.72
2023-03-04T16:43:17.023Z,4.65
2023-03-04T16:46:18.300Z,5.25
2023-03-04T16:49:19.660Z,5.78
2023-03-04T16:52:25.307Z,5.10
2023-03-04T16:55:28.293Z,4.50
2023-03-04T16:58:29.641Z,5.15
2023-03-04T17:01:31.252Z,4.53
2023-03-04T17:04:32.568Z,3.58
2023-03-04T17:07:33.895Z,2.63
2023-03-04T17:10:35.261Z,4.38
2023-03-04T17:13:36.573Z,4.18
2023-03-04T17:16:37.880Z,3.53
2023-03-04T17:19:39.236Z,4.35
2023-03-04T17:22:40.538Z,3.17
2023-03-04T17:25:41.804Z,5.68
2023-03-04T17:28:43.182Z,5.65
2023-03-04T17:31:44.524Z,4.40
2023-03-04T17:34:46.138Z,3.45
2023-03-04T17:37:47.470Z,3.65
2023-03-04T17:40:48.808Z,4.38
2023-03-04T17:43:51.153Z,4.53
2023-03-04T17:46:52.453Z,5.60
2023-03-04T17:49:53.765Z,4.65
2023-03-04T17:52:55.120Z,4.93
2023-03-04T17:55:57.651Z,5.28
2023-03-04T17:58:59.766Z,5.25
2023-03-04T18:02:01.133Z,6.75
2023-03-04T18:05:05.701Z,6.95
2023-03-04T18:08:07.414Z,7.35
2023-03-04T18:11:08.777Z,6.95
2023-03-04T18:14:12.633Z,7.28
2023-03-04T18:17:14.001Z,6.35
2023-03-04T18:20:15.394Z,5.70
2023-03-04T18:23:16.755Z,7.00
2023-03-04T18:26:21.062Z,6.95
2023-03-04T18:29:22.859Z,8.05
2023-03-04T18:32:24.424Z,6.53
2023-03-04T18:35:25.887Z,8.52
2023-03-04T18:38:27.455Z,6.57
2023-03-04T18:41:28.915Z,8.27
2023-03-04T18:44:30.248Z,9.85
2023-03-04T18:47:32.036Z,7.88
2023-03-04T18:50:33.377Z,7.13
2023-03-04T18:53:34.786Z,7.90
2023-03-04T18:56:42.378Z,8.75
2023-03-04T18:59:46.229Z,8.05
2023-03-04T19:02:49.616Z,7.00
2023-03-04T19:05:50.904Z,9.38
2023-03-04T19:08:55.163Z,7.30
2023-03-04T19:11:56.635Z,8.13
2023-03-04T19:14:58.816Z,8.15
2023-03-04T19:18:00.209Z,6.82
2023-03-04T19:21:04.193Z,5.75
2023-03-04T19:24:06.907Z,6.88
2023-03-04T19:27:08.201Z,6.78
2023-03-04T19:30:09.775Z,7.95
2023-03-04T19:33:11.082Z,6.13
2023-03-04T19:36:12.458Z,6.97
2023-03-04T19:39:15.544Z,6.60
2023-03-04T19:42:16.871Z,9.40
2023-03-04T19:45:18.150Z,9.55
2023-03-04T19:48:19.450Z,8.07
2023-03-04T19:51:22.609Z,10.63
2023-03-04T19:54:23.971Z,8.05
2023-03-04T19:57:25.286Z,7.50
2023-03-04T20:00:26.659Z,9.70
2023-03-04T20:03:28.000Z,9.05
2023-03-04T20:06:29.432Z,5.97
2023-03-04T20:09:30.867Z,7.53
2023-03-04T20:12:33.630Z,7.85
2023-03-04T20:15:35.222Z,7.53
2023-03-04T20:18:37.000Z,8.32
2023-03-04T20:21:38.745Z,6.50
2023-03-04T20:24:40.236Z,8.38
2023-03-04T20:27:41.748Z,7.65
2023-03-04T20:30:43.074Z,8.23
2023-03-04T20:33:44.860Z,6.55
2023-03-04T20:36:46.209Z,5.50
2023-03-04T20:39:47.572Z,8.15
2023-03-04T20:42:48.898Z,9.02
2023-03-04T20:45:50.179Z,8.27
2023-03-04T20:48:51.509Z,7.65
2023-03-04T20:51:53.815Z,8.10
2023-03-04T20:54:55.203Z,7.03
2023-03-04T20:57:56.500Z,8.07
2023-03-04T21:00:57.868Z,7.03
2023-03-04T21:03:59.857Z,8.35
2023-03-04T21:07:01.532Z,6.82
2023-03-04T21:10:03.583Z,7.85
2023-03-04T21:13:05.503Z,8.25
2023-03-04T21:16:10.480Z,9.10
2023-03-04T21:19:16.722Z,7.97
2023-03-04T21:22:19.250Z,8.32
2023-03-04T21:25:22.933Z,8.20
2023-03-04T21:28:25.119Z,8.07
2023-03-04T21:31:28.634Z,7.35
2023-03-04T21:34:45.256Z,7.85
2023-03-04T21:37:46.688Z,8.68
2023-03-04T21:40:48.034Z,7.97
2023-03-04T21:43:49.642Z,6.68
2023-03-04T21:46:51.038Z,8.00
2023-03-04T21:49:52.510Z,6.32
2023-03-04T21:52:53.858Z,7.10
2023-03-04T21:55:55.250Z,8.23
2023-03-04T21:58:58.691Z,7.55
2023-03-04T22:02:00.061Z,7.13
2023-03-04T22:05:01.449Z,7.03
2023-03-04T22:08:02.713Z,8.02
2023-03-04T22:11:07.631Z,6.75
2023-03-04T22:17:10.258Z,5.45
2023-03-04T22:20:11.879Z,5.68
2023-03-04T22:23:13.665Z,8.57
2023-03-04T22:26:16.176Z,7.43
2023-03-04T22:29:17.598Z,7.75
2023-03-04T22:32:19.606Z,7.03
2023-03-04T22:35:21.009Z,7.82
2023-03-04T22:38:22.460Z,8.35
2023-03-04T22:41:24.105Z,8.32
2023-03-04T22:44:25.410Z,6.30
2023-03-04T22:47:26.855Z,9.25
2023-03-04T22:50:28.236Z,7.75
2023-03-04T22:53:29.614Z,7.07
2023-03-04T22:56:30.975Z,6.20
2023-03-04T22:59:32.449Z,8.35
2023-03-04T23:02:33.801Z,6.82
2023-03-04T23:05:35.136Z,7.13
2023-03-04T23:08:37.204Z,7.00
2023-03-04T23:11:39.465Z,8.65
2023-03-04T23:14:43.480Z,5.90
2023-03-04T23:17:45.006Z,5.20
2023-03-04T23:20:46.295Z,7.00
2023-03-04T23:23:47.866Z,7.25
2023-03-04T23:26:49.177Z,6.05
2023-03-04T23:29:50.557Z,7.05
2023-03-04T23:32:51.792Z,6.53
2023-03-04T23:35:53.127Z,6.15
2023-03-04T23:38:55.011Z,6.18
2023-03-04T23:41:56.327Z,6.35
2023-03-04T23:44:57.618Z,7.18
2023-03-04T23:47:59.045Z,6.80
2023-03-04T23:51:01.614Z,7.40
2023-03-04T23:54:03.026Z,7.88
2023-03-04T23:57:04.407Z,6.72
